KNQA/NQA METAR and TAF weather

Enter ICAO airport designator
Station Type Date Time Source
KNQA METAR 2021/09/23 17:50 UTC NOAA

KNQA 231750Z 36004KT 10SM CLR 23/08 A3011


Station Type Date Time Source
KNQA Decoded METAR 2021/09/23 17:50 UTC NOAA

Millington, Millington Municipal Airport, TN, United States (KNQA) 35-21-24N 089-52-13W
Sep 23, 2021 - 01:50 PM EDT / 2021.09.23 1750 UTC
Wind: from the N (360 degrees) at 5 MPH (4 KT):0
Visibility: 10 mile(s):0
Sky conditions: clear
Temperature: 73 F (23 C)
Dew Point: 46 F (8 C)
Relative Humidity: 38%
Pressure (altimeter): 30.11 in. Hg (1019 hPa)
ob: KNQA 231750Z 36004KT 10SM CLR 23/08 A3011
cycle: 18

Station Type Date Time Source
KNQA TAF UTC NOAA

Error!

Example: see airport list